sensor_id;sensor_type;location;lat;lon;timestamp;pressure;altitude;pressure_sealevel;temperature;humidity
71109;BME280;59614;51.012;-1.648;2022-09-13T00:01:40;100160.03;;;18.10;75.57
71109;BME280;59614;51.012;-1.648;2022-09-13T00:04:05;100154.00;;;18.06;75.99
71109;BME280;59614;51.012;-1.648;2022-09-13T00:06:31;100150.47;;;18.06;75.78
71109;BME280;59614;51.012;-1.648;2022-09-13T00:08:56;100150.38;;;18.08;75.71
71109;BME280;59614;51.012;-1.648;2022-09-13T00:11:27;100144.41;;;18.02;75.77
71109;BME280;59614;51.012;-1.648;2022-09-13T00:13:54;100145.34;;;18.01;76.13
71109;BME280;59614;51.012;-1.648;2022-09-13T00:16:22;100142.91;;;17.97;76.57
71109;BME280;59614;51.012;-1.648;2022-09-13T00:18:49;100151.94;;;17.94;76.23
71109;BME280;59614;51.012;-1.648;2022-09-13T00:21:17;100135.91;;;17.94;76.18
71109;BME280;59614;51.012;-1.648;2022-09-13T00:23:44;100125.38;;;17.91;76.43
71109;BME280;59614;51.012;-1.648;2022-09-13T00:26:13;100132.63;;;17.89;76.62
71109;BME280;59614;51.012;-1.648;2022-09-13T00:28:39;100127.28;;;17.89;75.89
71109;BME280;59614;51.012;-1.648;2022-09-13T00:31:07;100134.28;;;17.91;75.59
71109;BME280;59614;51.012;-1.648;2022-09-13T00:33:33;100132.44;;;17.92;75.37
71109;BME280;59614;51.012;-1.648;2022-09-13T00:36:03;100136.25;;;17.88;75.47
71109;BME280;59614;51.012;-1.648;2022-09-13T00:38:29;100136.53;;;17.82;76.53
71109;BME280;59614;51.012;-1.648;2022-09-13T00:40:54;100131.28;;;17.80;75.88
71109;BME280;59614;51.012;-1.648;2022-09-13T00:43:36;100123.53;;;17.75;75.99
71109;BME280;59614;51.012;-1.648;2022-09-13T00:46:04;100123.28;;;17.80;76.25
71109;BME280;59614;51.012;-1.648;2022-09-13T00:48:31;100121.66;;;17.78;76.51
71109;BME280;59614;51.012;-1.648;2022-09-13T00:50:59;100120.69;;;17.79;76.63
71109;BME280;59614;51.012;-1.648;2022-09-13T00:53:35;100118.78;;;17.81;76.75
71109;BME280;59614;51.012;-1.648;2022-09-13T00:56:10;100119.72;;;17.80;76.88
71109;BME280;59614;51.012;-1.648;2022-09-13T00:58:38;100118.19;;;17.75;77.02
71109;BME280;59614;51.012;-1.648;2022-09-13T01:01:08;100109.38;;;17.73;76.99
71109;BME280;59614;51.012;-1.648;2022-09-13T01:03:35;100105.00;;;17.72;77.00
71109;BME280;59614;51.012;-1.648;2022-09-13T01:06:07;100099.88;;;17.68;77.19
71109;BME280;59614;51.012;-1.648;2022-09-13T01:08:35;100111.41;;;17.68;76.73
71109;BME280;59614;51.012;-1.648;2022-09-13T01:11:02;100093.53;;;17.70;76.03
71109;BME280;59614;51.012;-1.648;2022-09-13T01:13:34;100091.50;;;17.75;75.83
71109;BME280;59614;51.012;-1.648;2022-09-13T01:16:00;100103.66;;;17.81;75.34
71109;BME280;59614;51.012;-1.648;2022-09-13T01:18:26;100099.97;;;17.84;75.23
71109;BME280;59614;51.012;-1.648;2022-09-13T01:21:12;100097.97;;;17.87;75.13
71109;BME280;59614;51.012;-1.648;2022-09-13T01:37:57;100102.94;;;17.60;77.81
71109;BME280;59614;51.012;-1.648;2022-09-13T01:41:05;100090.72;;;17.56;78.20
71109;BME280;59614;51.012;-1.648;2022-09-13T01:43:56;100095.03;;;17.58;77.91
71109;BME280;59614;51.012;-1.648;2022-09-13T01:46:31;100103.97;;;17.57;77.96
71109;BME280;59614;51.012;-1.648;2022-09-13T01:49:10;100100.41;;;17.57;78.03
71109;BME280;59614;51.012;-1.648;2022-09-13T01:51:50;100103.09;;;17.57;78.21
71109;BME280;59614;51.012;-1.648;2022-09-13T01:54:33;100103.03;;;17.58;78.20
71109;BME280;59614;51.012;-1.648;2022-09-13T01:57:11;100101.41;;;17.56;78.57
71109;BME280;59614;51.012;-1.648;2022-09-13T01:59:49;100104.22;;;17.53;79.39
71109;BME280;59614;51.012;-1.648;2022-09-13T02:02:18;100099.16;;;17.47;79.37
71109;BME280;59614;51.012;-1.648;2022-09-13T02:04:50;100093.22;;;17.41;79.80
71109;BME280;59614;51.012;-1.648;2022-09-13T02:07:43;100085.81;;;17.47;79.56
71109;BME280;59614;51.012;-1.648;2022-09-13T02:10:20;100089.38;;;17.47;79.58
71109;BME280;59614;51.012;-1.648;2022-09-13T02:12:49;100096.44;;;17.48;79.96
71109;BME280;59614;51.012;-1.648;2022-09-13T02:15:22;100087.72;;;17.44;80.08
71109;BME280;59614;51.012;-1.648;2022-09-13T02:17:55;100097.84;;;17.38;80.91
71109;BME280;59614;51.012;-1.648;2022-09-13T02:20:30;100105.34;;;17.29;81.40
71109;BME280;59614;51.012;-1.648;2022-09-13T02:23:01;100113.19;;;17.15;82.76
71109;BME280;59614;51.012;-1.648;2022-09-13T02:25:30;100116.00;;;17.12;83.37
71109;BME280;59614;51.012;-1.648;2022-09-13T02:28:01;100114.34;;;17.09;83.91
71109;BME280;59614;51.012;-1.648;2022-09-13T02:30:28;100112.63;;;17.08;84.73
71109;BME280;59614;51.012;-1.648;2022-09-13T02:38:31;100130.34;;;17.09;86.47
71109;BME280;59614;51.012;-1.648;2022-09-13T02:41:30;100134.78;;;17.09;86.71
71109;BME280;59614;51.012;-1.648;2022-09-13T02:54:57;100128.88;;;17.02;88.69
71109;BME280;59614;51.012;-1.648;2022-09-13T02:59:57;100133.66;;;16.95;89.51
71109;BME280;59614;51.012;-1.648;2022-09-13T03:02:26;100131.91;;;16.94;90.49
71109;BME280;59614;51.012;-1.648;2022-09-13T03:04:55;100139.16;;;16.91;91.29
71109;BME280;59614;51.012;-1.648;2022-09-13T03:07:22;100144.50;;;16.91;91.87
71109;BME280;59614;51.012;-1.648;2022-09-13T03:09:51;100138.41;;;16.89;92.54
71109;BME280;59614;51.012;-1.648;2022-09-13T03:12:43;100146.31;;;16.90;92.72
71109;BME280;59614;51.012;-1.648;2022-09-13T03:23:12;100129.63;;;16.87;95.18
71109;BME280;59614;51.012;-1.648;2022-09-13T03:31:18;100134.84;;;16.88;96.41
71109;BME280;59614;51.012;-1.648;2022-09-13T03:34:01;100142.00;;;16.88;96.54
71109;BME280;59614;51.012;-1.648;2022-09-13T03:36:34;100138.41;;;16.89;97.08
71109;BME280;59614;51.012;-1.648;2022-09-13T03:39:22;100142.00;;;16.88;97.29
71109;BME280;59614;51.012;-1.648;2022-09-13T03:41:54;100142.84;;;16.88;97.70
71109;BME280;59614;51.012;-1.648;2022-09-13T03:44:23;100140.28;;;16.87;97.75
71109;BME280;59614;51.012;-1.648;2022-09-13T03:46:54;100141.06;;;16.89;97.98
71109;BME280;59614;51.012;-1.648;2022-09-13T03:49:24;100143.88;;;16.86;98.30
71109;BME280;59614;51.012;-1.648;2022-09-13T03:51:51;100147.34;;;16.88;98.24
71109;BME280;59614;51.012;-1.648;2022-09-13T03:54:27;100135.00;;;16.85;98.51
71109;BME280;59614;51.012;-1.648;2022-09-13T03:57:11;100136.72;;;16.86;98.48
71109;BME280;59614;51.012;-1.648;2022-09-13T03:59:41;100136.91;;;16.83;98.68
71109;BME280;59614;51.012;-1.648;2022-09-13T04:02:07;100136.91;;;16.83;98.72
71109;BME280;59614;51.012;-1.648;2022-09-13T04:04:35;100148.41;;;16.83;98.60
71109;BME280;59614;51.012;-1.648;2022-09-13T04:07:00;100149.34;;;16.82;98.57
71109;BME280;59614;51.012;-1.648;2022-09-13T04:09:29;100151.22;;;16.80;98.58
71109;BME280;59614;51.012;-1.648;2022-09-13T04:11:54;100159.19;;;16.80;98.77
71109;BME280;59614;51.012;-1.648;2022-09-13T04:14:20;100164.69;;;16.77;98.55
71109;BME280;59614;51.012;-1.648;2022-09-13T04:16:45;100168.34;;;16.75;98.58
71109;BME280;59614;51.012;-1.648;2022-09-13T04:19:11;100167.63;;;16.71;98.67
71109;BME280;59614;51.012;-1.648;2022-09-13T04:21:36;100183.63;;;16.71;98.12
71109;BME280;59614;51.012;-1.648;2022-09-13T04:24:02;100174.03;;;16.67;98.18
71109;BME280;59614;51.012;-1.648;2022-09-13T04:26:28;100174.09;;;16.65;97.66
71109;BME280;59614;51.012;-1.648;2022-09-13T04:28:53;100165.47;;;16.60;97.28
71109;BME280;59614;51.012;-1.648;2022-09-13T04:31:19;100172.81;;;16.55;96.94
71109;BME280;59614;51.012;-1.648;2022-09-13T04:33:44;100187.94;;;16.55;96.75
71109;BME280;59614;51.012;-1.648;2022-09-13T04:36:10;100174.75;;;16.51;96.80
71109;BME280;59614;51.012;-1.648;2022-09-13T04:38:35;100177.28;;;16.55;96.79
71109;BME280;59614;51.012;-1.648;2022-09-13T04:41:02;100182.06;;;16.46;95.88
71109;BME280;59614;51.012;-1.648;2022-09-13T04:43:27;100179.09;;;16.33;95.38
71109;BME280;59614;51.012;-1.648;2022-09-13T04:45:53;100171.56;;;16.23;95.26
71109;BME280;59614;51.012;-1.648;2022-09-13T04:48:18;100169.09;;;16.18;95.05
71109;BME280;59614;51.012;-1.648;2022-09-13T04:50:44;100179.09;;;16.13;95.15
71109;BME280;59614;51.012;-1.648;2022-09-13T04:53:10;100167.53;;;16.14;95.41
71109;BME280;59614;51.012;-1.648;2022-09-13T04:55:35;100171.16;;;16.11;95.16
71109;BME280;59614;51.012;-1.648;2022-09-13T04:58:01;100174.13;;;16.05;95.26
71109;BME280;59614;51.012;-1.648;2022-09-13T05:00:27;100171.53;;;16.03;95.16
71109;BME280;59614;51.012;-1.648;2022-09-13T05:02:55;100167.19;;;16.01;95.35
71109;BME280;59614;51.012;-1.648;2022-09-13T05:05:22;100165.44;;;16.00;95.23
71109;BME280;59614;51.012;-1.648;2022-09-13T05:07:51;100164.72;;;15.96;95.49
71109;BME280;59614;51.012;-1.648;2022-09-13T05:10:17;100153.34;;;15.93;95.31
71109;BME280;59614;51.012;-1.648;2022-09-13T05:12:42;100156.94;;;15.92;95.31
71109;BME280;59614;51.012;-1.648;2022-09-13T05:15:08;100154.28;;;15.92;95.54
71109;BME280;59614;51.012;-1.648;2022-09-13T05:17:35;100168.50;;;15.90;95.51
71109;BME280;59614;51.012;-1.648;2022-09-13T05:20:00;100158.78;;;15.89;95.51
71109;BME280;59614;51.012;-1.648;2022-09-13T05:22:26;100162.53;;;15.85;95.61
71109;BME280;59614;51.012;-1.648;2022-09-13T05:24:51;100166.97;;;15.85;95.81
71109;BME280;59614;51.012;-1.648;2022-09-13T05:27:16;100159.00;;;15.85;96.00
71109;BME280;59614;51.012;-1.648;2022-09-13T05:29:42;100165.22;;;15.84;95.70
71109;BME280;59614;51.012;-1.648;2022-09-13T05:32:07;100159.03;;;15.83;95.64
71109;BME280;59614;51.012;-1.648;2022-09-13T05:34:33;100161.69;;;15.83;95.89
71109;BME280;59614;51.012;-1.648;2022-09-13T05:36:58;100164.47;;;15.80;95.92
71109;BME280;59614;51.012;-1.648;2022-09-13T05:39:24;100166.34;;;15.78;96.20
71109;BME280;59614;51.012;-1.648;2022-09-13T05:41:49;100165.38;;;15.81;96.01
71109;BME280;59614;51.012;-1.648;2022-09-13T05:44:14;100163.88;;;15.73;96.18
71109;BME280;59614;51.012;-1.648;2022-09-13T05:46:40;100166.34;;;15.78;96.53
71109;BME280;59614;51.012;-1.648;2022-09-13T05:49:07;100173.47;;;15.78;96.44
71109;BME280;59614;51.012;-1.648;2022-09-13T05:51:32;100169.91;;;15.77;96.01
71109;BME280;59614;51.012;-1.648;2022-09-13T05:53:58;100169.91;;;15.77;95.76
71109;BME280;59614;51.012;-1.648;2022-09-13T05:56:27;100167.09;;;15.82;95.80
71109;BME280;59614;51.012;-1.648;2022-09-13T05:58:53;100168.94;;;15.80;96.00
71109;BME280;59614;51.012;-1.648;2022-09-13T06:01:22;100180.44;;;15.80;96.08
71109;BME280;59614;51.012;-1.648;2022-09-13T06:03:52;100177.25;;;15.72;96.32
71109;BME280;59614;51.012;-1.648;2022-09-13T06:06:18;100180.56;;;15.77;95.88
71109;BME280;59614;51.012;-1.648;2022-09-13T06:08:45;100190.25;;;15.80;95.33
71109;BME280;59614;51.012;-1.648;2022-09-13T06:11:13;100179.72;;;15.77;95.19
71109;BME280;59614;51.012;-1.648;2022-09-13T06:13:39;100178.88;;;15.76;95.62
71109;BME280;59614;51.012;-1.648;2022-09-13T06:16:08;100168.22;;;15.76;95.13
71109;BME280;59614;51.012;-1.648;2022-09-13T06:18:34;100168.25;;;15.74;94.82
71109;BME280;59614;51.012;-1.648;2022-09-13T06:21:09;100165.81;;;15.70;95.32
71109;BME280;59614;51.012;-1.648;2022-09-13T06:23:35;100171.13;;;15.70;95.01
71109;BME280;59614;51.012;-1.648;2022-09-13T06:26:04;100160.28;;;15.74;94.27
71109;BME280;59614;51.012;-1.648;2022-09-13T06:28:31;100160.41;;;15.71;94.51
71109;BME280;59614;51.012;-1.648;2022-09-13T06:31:11;100165.00;;;15.68;94.18
71109;BME280;59614;51.012;-1.648;2022-09-13T06:33:38;100152.41;;;15.71;93.62
71109;BME280;59614;51.012;-1.648;2022-09-13T06:36:12;100151.88;;;15.63;93.82
71109;BME280;59614;51.012;-1.648;2022-09-13T06:38:43;100150.09;;;15.64;93.03
71109;BME280;59614;51.012;-1.648;2022-09-13T06:41:11;100162.41;;;15.66;92.98
71109;BME280;59614;51.012;-1.648;2022-09-13T06:43:37;100160.56;;;15.68;92.28
71109;BME280;59614;51.012;-1.648;2022-09-13T06:46:11;100159.66;;;15.68;92.20
71109;BME280;59614;51.012;-1.648;2022-09-13T06:48:39;100152.78;;;15.64;92.49
71109;BME280;59614;51.012;-1.648;2022-09-13T06:51:08;100149.41;;;15.58;92.27
71109;BME280;59614;51.012;-1.648;2022-09-13T06:53:35;100146.84;;;15.57;91.84
71109;BME280;59614;51.012;-1.648;2022-09-13T06:56:05;100141.53;;;15.57;92.09
71109;BME280;59614;51.012;-1.648;2022-09-13T06:58:32;100142.44;;;15.56;91.91
71109;BME280;59614;51.012;-1.648;2022-09-13T07:03:42;100128.72;;;15.44;91.70
71109;BME280;59614;51.012;-1.648;2022-09-13T07:06:13;100130.47;;;15.46;91.54
71109;BME280;59614;51.012;-1.648;2022-09-13T07:08:40;100130.50;;;15.44;91.65
71109;BME280;59614;51.012;-1.648;2022-09-13T07:11:06;100130.84;;;15.36;92.10
71109;BME280;59614;51.012;-1.648;2022-09-13T07:13:32;100137.31;;;15.51;92.34
71109;BME280;59614;51.012;-1.648;2022-09-13T07:16:01;100133.59;;;15.55;91.60
71109;BME280;59614;51.012;-1.648;2022-09-13T07:18:27;100127.66;;;15.49;91.09
71109;BME280;59614;51.012;-1.648;2022-09-13T07:20:58;100130.31;;;15.49;91.63
71109;BME280;59614;51.012;-1.648;2022-09-13T07:23:24;100119.34;;;15.56;91.07
71109;BME280;59614;51.012;-1.648;2022-09-13T07:25:54;100117.63;;;15.55;90.50
71109;BME280;59614;51.012;-1.648;2022-09-13T07:28:20;100118.69;;;15.51;90.21
71109;BME280;59614;51.012;-1.648;2022-09-13T07:30:45;100127.59;;;15.50;90.51
71109;BME280;59614;51.012;-1.648;2022-09-13T07:33:10;100123.81;;;15.56;90.33
71109;BME280;59614;51.012;-1.648;2022-09-13T07:35:37;100124.81;;;15.53;90.36
71109;BME280;59614;51.012;-1.648;2022-09-13T07:38:02;100132.47;;;15.61;89.70
71109;BME280;59614;51.012;-1.648;2022-09-13T07:40:27;100127.28;;;15.58;90.21
71109;BME280;59614;51.012;-1.648;2022-09-13T07:42:53;100133.47;;;15.58;89.71
71109;BME280;59614;51.012;-1.648;2022-09-13T07:45:19;100129.69;;;15.64;89.95
71109;BME280;59614;51.012;-1.648;2022-09-13T07:47:45;100124.69;;;15.56;90.67
71109;BME280;59614;51.012;-1.648;2022-09-13T07:50:10;100125.06;;;15.47;91.25
71109;BME280;59614;51.012;-1.648;2022-09-13T07:52:36;100131.25;;;15.48;91.76
71109;BME280;59614;51.012;-1.648;2022-09-13T07:55:02;100136.16;;;15.36;91.16
71109;BME280;59614;51.012;-1.648;2022-09-13T07:57:28;100123.91;;;15.32;91.60
71109;BME280;59614;51.012;-1.648;2022-09-13T07:59:53;100129.16;;;15.34;91.33
71109;BME280;59614;51.012;-1.648;2022-09-13T08:02:19;100120.38;;;15.32;91.82
71109;BME280;59614;51.012;-1.648;2022-09-13T08:04:44;100116.78;;;15.33;91.93
71109;BME280;59614;51.012;-1.648;2022-09-13T08:07:10;100121.13;;;15.35;91.92
71109;BME280;59614;51.012;-1.648;2022-09-13T08:09:35;100127.56;;;15.29;91.98
71109;BME280;59614;51.012;-1.648;2022-09-13T08:12:01;100122.16;;;15.09;94.30
71109;BME280;59614;51.012;-1.648;2022-09-13T08:14:26;100120.56;;;15.05;95.32
71109;BME280;59614;51.012;-1.648;2022-09-13T08:16:55;100132.63;;;14.91;96.08
71109;BME280;59614;51.012;-1.648;2022-09-13T08:19:23;100121.44;;;14.83;97.48
71109;BME280;59614;51.012;-1.648;2022-09-13T08:21:48;100129.63;;;14.77;97.87
71109;BME280;59614;51.012;-1.648;2022-09-13T08:24:17;100122.00;;;14.67;98.20
71109;BME280;59614;51.012;-1.648;2022-09-13T08:26:43;100128.13;;;14.70;100.00
71109;BME280;59614;51.012;-1.648;2022-09-13T08:29:10;100135.53;;;14.60;99.68
71109;BME280;59614;51.012;-1.648;2022-09-13T08:31:36;100146.13;;;14.61;100.00
71109;BME280;59614;51.012;-1.648;2022-09-13T08:34:02;100145.38;;;14.58;100.00
71109;BME280;59614;51.012;-1.648;2022-09-13T08:36:28;100158.59;;;14.59;100.00
71109;BME280;59614;51.012;-1.648;2022-09-13T08:38:56;100167.41;;;14.60;100.00
71109;BME280;59614;51.012;-1.648;2022-09-13T08:58:21;100172.75;;;14.83;100.00
71109;BME280;59614;51.012;-1.648;2022-09-13T09:00:58;100169.63;;;14.96;100.00
71109;BME280;59614;51.012;-1.648;2022-09-13T09:06:16;100173.84;;;15.02;100.00
71109;BME280;59614;51.012;-1.648;2022-09-13T09:08:52;100176.41;;;15.05;100.00
71109;BME280;59614;51.012;-1.648;2022-09-13T09:16:50;100161.50;;;15.23;100.00
71109;BME280;59614;51.012;-1.648;2022-09-13T09:19:41;100173.69;;;15.28;100.00
71109;BME280;59614;51.012;-1.648;2022-09-13T09:22:19;100170.09;;;15.29;100.00
71109;BME280;59614;51.012;-1.648;2022-09-13T09:24:54;100176.91;;;15.37;100.00
71109;BME280;59614;51.012;-1.648;2022-09-13T09:27:20;100176.53;;;15.46;99.49
71109;BME280;59614;51.012;-1.648;2022-09-13T09:29:55;100177.94;;;15.55;100.00
71109;BME280;59614;51.012;-1.648;2022-09-13T09:37:45;100183.03;;;16.04;100.00
71109;BME280;59614;51.012;-1.648;2022-09-13T09:40:15;100190.59;;;16.13;97.83
71109;BME280;59614;51.012;-1.648;2022-09-13T09:42:42;100197.66;;;16.14;96.75
71109;BME280;59614;51.012;-1.648;2022-09-13T09:45:22;100187.53;;;16.23;96.61
71109;BME280;59614;51.012;-1.648;2022-09-13T09:47:50;100202.66;;;16.22;95.71
71109;BME280;59614;51.012;-1.648;2022-09-13T09:53:04;100178.63;;;16.24;95.30
71109;BME280;59614;51.012;-1.648;2022-09-13T09:58:36;100195.66;;;15.99;96.78
71109;BME280;59614;51.012;-1.648;2022-09-13T10:01:02;100193.34;;;15.91;95.96
71109;BME280;59614;51.012;-1.648;2022-09-13T10:03:31;100189.19;;;16.04;97.84
71109;BME280;59614;51.012;-1.648;2022-09-13T10:06:05;100185.78;;;16.02;95.19
71109;BME280;59614;51.012;-1.648;2022-09-13T10:08:34;100189.69;;;16.14;95.74
71109;BME280;59614;51.012;-1.648;2022-09-13T10:11:01;100190.72;;;16.10;95.51
71109;BME280;59614;51.012;-1.648;2022-09-13T10:13:28;100191.34;;;15.96;95.60
71109;BME280;59614;51.012;-1.648;2022-09-13T10:16:00;100185.78;;;16.02;96.61
71109;BME280;59614;51.012;-1.648;2022-09-13T10:18:31;100191.53;;;15.92;97.60
71109;BME280;59614;51.012;-1.648;2022-09-13T10:23:32;100192.47;;;15.68;98.33
71109;BME280;59614;51.012;-1.648;2022-09-13T10:26:14;100188.91;;;15.69;99.69
71109;BME280;59614;51.012;-1.648;2022-09-13T10:28:46;100181.34;;;15.58;99.63
71109;BME280;59614;51.012;-1.648;2022-09-13T10:31:17;100187.69;;;15.54;100.00
71109;BME280;59614;51.012;-1.648;2022-09-13T10:33:55;100194.09;;;15.50;99.68
71109;BME280;59614;51.012;-1.648;2022-09-13T10:36:28;100204.47;;;15.56;100.00
71109;BME280;59614;51.012;-1.648;2022-09-13T10:39:04;100207.81;;;15.62;99.81
71109;BME280;59614;51.012;-1.648;2022-09-13T10:41:35;100219.47;;;15.59;98.74
71109;BME280;59614;51.012;-1.648;2022-09-13T10:44:24;100206.22;;;15.57;100.00
71109;BME280;59614;51.012;-1.648;2022-09-13T10:46:52;100222.41;;;15.73;99.08
71109;BME280;59614;51.012;-1.648;2022-09-13T10:49:38;100216.34;;;15.70;99.35
71109;BME280;59614;51.012;-1.648;2022-09-13T10:52:26;100211.72;;;15.75;98.60
71109;BME280;59614;51.012;-1.648;2022-09-13T10:54:53;100219.69;;;15.75;98.67
71109;BME280;59614;51.012;-1.648;2022-09-13T10:57:32;100223.03;;;15.80;97.78
71109;BME280;59614;51.012;-1.648;2022-09-13T10:59:59;100215.84;;;15.82;98.49
71109;BME280;59614;51.012;-1.648;2022-09-13T11:08:30;100219.69;;;15.75;98.51
71109;BME280;59614;51.012;-1.648;2022-09-13T11:11:09;100221.66;;;15.70;99.57
71109;BME280;59614;51.012;-1.648;2022-09-13T11:16:31;100220.34;;;15.80;100.00
71109;BME280;59614;51.012;-1.648;2022-09-13T11:36:39;100229.72;;;15.68;100.00
71109;BME280;59614;51.012;-1.648;2022-09-13T11:39:26;100235.16;;;15.65;100.00
71109;BME280;59614;51.012;-1.648;2022-09-13T11:47:51;100237.66;;;15.48;100.00
71109;BME280;59614;51.012;-1.648;2022-09-13T11:53:04;100218.81;;;15.30;100.00
71109;BME280;59614;51.012;-1.648;2022-09-13T11:55:46;100218.25;;;15.22;100.00
71109;BME280;59614;51.012;-1.648;2022-09-13T11:58:19;100212.75;;;15.26;100.00
71109;BME280;59614;51.012;-1.648;2022-09-13T12:00:55;100209.75;;;15.36;100.00
71109;BME280;59614;51.012;-1.648;2022-09-13T12:05:50;100213.00;;;15.20;100.00
71109;BME280;59614;51.012;-1.648;2022-09-13T12:10:56;100199.91;;;15.38;100.00
71109;BME280;59614;51.012;-1.648;2022-09-13T12:13:28;100202.94;;;15.28;100.00
71109;BME280;59614;51.012;-1.648;2022-09-13T12:15:59;100200.75;;;15.16;100.00
71109;BME280;59614;51.012;-1.648;2022-09-13T12:18:40;100207.66;;;15.20;100.00
71109;BME280;59614;51.012;-1.648;2022-09-13T12:21:12;100198.28;;;15.11;100.00
71109;BME280;59614;51.012;-1.648;2022-09-13T12:31:43;100192.03;;;15.35;100.00
71109;BME280;59614;51.012;-1.648;2022-09-13T12:34:17;100196.88;;;15.47;100.00
71109;BME280;59614;51.012;-1.648;2022-09-13T12:40:24;100198.34;;;15.54;99.07
71109;BME280;59614;51.012;-1.648;2022-09-13T12:45:55;100195.94;;;15.48;98.82
71109;BME280;59614;51.012;-1.648;2022-09-13T12:48:46;100195.88;;;15.50;99.82
71109;BME280;59614;51.012;-1.648;2022-09-13T12:51:29;100189.81;;;15.46;99.18
71109;BME280;59614;51.012;-1.648;2022-09-13T12:59:24;100197.03;;;15.20;97.28
71109;BME280;59614;51.012;-1.648;2022-09-13T13:01:54;100182.44;;;15.08;97.16
71109;BME280;59614;51.012;-1.648;2022-09-13T13:04:25;100195.63;;;15.11;97.77
71109;BME280;59614;51.012;-1.648;2022-09-13T13:06:56;100188.75;;;15.06;97.67
71109;BME280;59614;51.012;-1.648;2022-09-13T13:09:44;100189.44;;;15.11;97.81
71109;BME280;59614;51.012;-1.648;2022-09-13T13:12:37;100172.88;;;15.26;98.24
71109;BME280;59614;51.012;-1.648;2022-09-13T13:15:06;100176.47;;;15.25;96.53
71109;BME280;59614;51.012;-1.648;2022-09-13T13:17:52;100177.16;;;15.31;97.74
71109;BME280;59614;51.012;-1.648;2022-09-13T13:21:02;100169.94;;;15.34;96.11
71109;BME280;59614;51.012;-1.648;2022-09-13T13:23:37;100166.25;;;15.37;97.76
71109;BME280;59614;51.012;-1.648;2022-09-13T13:44:00;100156.13;;;15.47;98.04
71109;BME280;59614;51.012;-1.648;2022-09-13T13:55:00;100149.00;;;15.47;98.90
71109;BME280;59614;51.012;-1.648;2022-09-13T13:57:38;100157.47;;;15.35;98.18
71109;BME280;59614;51.012;-1.648;2022-09-13T14:05:08;100150.53;;;15.53;99.78
71109;BME280;59614;51.012;-1.648;2022-09-13T14:21:36;100139.28;;;15.46;100.00
71109;BME280;59614;51.012;-1.648;2022-09-13T14:26:37;100136.94;;;15.60;100.00
71109;BME280;59614;51.012;-1.648;2022-09-13T14:29:07;100131.72;;;15.57;100.00
71109;BME280;59614;51.012;-1.648;2022-09-13T14:31:34;100128.03;;;15.62;100.00
71109;BME280;59614;51.012;-1.648;2022-09-13T14:33:59;100132.00;;;15.51;100.00
71109;BME280;59614;51.012;-1.648;2022-09-13T14:36:25;100135.59;;;15.50;100.00
71109;BME280;59614;51.012;-1.648;2022-09-13T14:38:56;100131.13;;;15.51;100.00
71109;BME280;59614;51.012;-1.648;2022-09-13T14:41:33;100117.91;;;15.27;100.00
71109;BME280;59614;51.012;-1.648;2022-09-13T14:44:27;100117.81;;;15.08;100.00
71109;BME280;59614;51.012;-1.648;2022-09-13T14:47:03;100118.03;;;15.02;100.00
71109;BME280;59614;51.012;-1.648;2022-09-13T14:49:43;100121.25;;;15.10;100.00
71109;BME280;59614;51.012;-1.648;2022-09-13T14:52:28;100120.63;;;15.03;100.00
71109;BME280;59614;51.012;-1.648;2022-09-13T14:54:56;100118.72;;;15.07;100.00
71109;BME280;59614;51.012;-1.648;2022-09-13T14:57:34;100122.31;;;15.06;100.00
71109;BME280;59614;51.012;-1.648;2022-09-13T15:00:13;100111.78;;;15.03;100.00
71109;BME280;59614;51.012;-1.648;2022-09-13T15:02:54;100119.78;;;15.03;100.00
71109;BME280;59614;51.012;-1.648;2022-09-13T15:05:25;100116.75;;;15.12;100.00
71109;BME280;59614;51.012;-1.648;2022-09-13T15:07:51;100110.63;;;15.10;100.00
71109;BME280;59614;51.012;-1.648;2022-09-13T15:15:26;100101.09;;;15.04;100.00
71109;BME280;59614;51.012;-1.648;2022-09-13T15:26:05;100099.72;;;14.94;100.00
71109;BME280;59614;51.012;-1.648;2022-09-13T15:31:07;100082.00;;;14.94;100.00
71109;BME280;59614;51.012;-1.648;2022-09-13T15:33:34;100091.53;;;15.00;100.00
71109;BME280;59614;51.012;-1.648;2022-09-13T15:41:38;100068.84;;;14.91;100.00
71109;BME280;59614;51.012;-1.648;2022-09-13T15:44:06;100072.53;;;14.87;100.00
71109;BME280;59614;51.012;-1.648;2022-09-13T15:46:35;100070.88;;;14.85;100.00
71109;BME280;59614;51.012;-1.648;2022-09-13T15:49:03;100069.09;;;14.85;100.00
71109;BME280;59614;51.012;-1.648;2022-09-13T15:51:30;100066.75;;;14.77;100.00
71109;BME280;59614;51.012;-1.648;2022-09-13T15:53:55;100062.47;;;14.73;100.00
71109;BME280;59614;51.012;-1.648;2022-09-13T15:56:30;100057.22;;;14.72;100.00
71109;BME280;59614;51.012;-1.648;2022-09-13T15:58:58;100052.03;;;14.69;100.00
71109;BME280;59614;51.012;-1.648;2022-09-13T16:01:24;100043.22;;;14.66;100.00
71109;BME280;59614;51.012;-1.648;2022-09-13T16:03:51;100049.53;;;14.64;100.00
71109;BME280;59614;51.012;-1.648;2022-09-13T16:06:17;100052.44;;;14.58;100.00
71109;BME280;59614;51.012;-1.648;2022-09-13T16:08:42;100048.53;;;14.66;100.00
71109;BME280;59614;51.012;-1.648;2022-09-13T16:11:08;100049.00;;;14.54;100.00
71109;BME280;59614;51.012;-1.648;2022-09-13T16:13:34;100037.81;;;14.46;100.00
71109;BME280;59614;51.012;-1.648;2022-09-13T16:16:00;100033.69;;;14.39;100.00
71109;BME280;59614;51.012;-1.648;2022-09-13T16:18:26;100020.41;;;14.39;100.00
71109;BME280;59614;51.012;-1.648;2022-09-13T16:20:51;100022.25;;;14.36;100.00
71109;BME280;59614;51.012;-1.648;2022-09-13T16:23:17;100014.41;;;14.33;100.00
71109;BME280;59614;51.012;-1.648;2022-09-13T16:25:42;100019.72;;;14.33;100.00
71109;BME280;59614;51.012;-1.648;2022-09-13T16:28:15;100033.91;;;14.32;100.00
71109;BME280;59614;51.012;-1.648;2022-09-13T16:30:42;100034.63;;;14.38;100.00
71109;BME280;59614;51.012;-1.648;2022-09-13T16:33:07;100037.19;;;14.39;100.00